sensor_id;sensor_type;location;lat;lon;timestamp;P1;durP1;ratioP1;P2;durP2;ratioP2
33094;SDS011;19459;53.044;8.910;2023-07-08T00:01:16;9.38;;;5.22;;
33094;SDS011;19459;53.044;8.910;2023-07-08T00:03:45;8.90;;;4.35;;
33094;SDS011;19459;53.044;8.910;2023-07-08T00:06:19;9.25;;;5.28;;
33094;SDS011;19459;53.044;8.910;2023-07-08T00:08:51;11.25;;;6.38;;
33094;SDS011;19459;53.044;8.910;2023-07-08T00:11:17;7.18;;;5.35;;
33094;SDS011;19459;53.044;8.910;2023-07-08T00:13:43;10.25;;;4.90;;
33094;SDS011;19459;53.044;8.910;2023-07-08T00:16:14;6.78;;;4.75;;
33094;SDS011;19459;53.044;8.910;2023-07-08T00:18:43;7.65;;;4.75;;
33094;SDS011;19459;53.044;8.910;2023-07-08T00:21:10;12.68;;;5.35;;
33094;SDS011;19459;53.044;8.910;2023-07-08T00:23:43;8.48;;;5.35;;
33094;SDS011;19459;53.044;8.910;2023-07-08T00:26:15;14.63;;;5.50;;
33094;SDS011;19459;53.044;8.910;2023-07-08T00:28:49;6.70;;;5.00;;
33094;SDS011;19459;53.044;8.910;2023-07-08T00:31:15;6.93;;;5.03;;
33094;SDS011;19459;53.044;8.910;2023-07-08T00:33:41;8.82;;;5.25;;
33094;SDS011;19459;53.044;8.910;2023-07-08T00:36:13;8.43;;;5.05;;
33094;SDS011;19459;53.044;8.910;2023-07-08T00:38:41;8.82;;;5.38;;
33094;SDS011;19459;53.044;8.910;2023-07-08T00:41:12;9.65;;;5.20;;
33094;SDS011;19459;53.044;8.910;2023-07-08T00:51:33;9.95;;;5.10;;
33094;SDS011;19459;53.044;8.910;2023-07-08T00:54:10;8.50;;;5.63;;
33094;SDS011;19459;53.044;8.910;2023-07-08T00:56:42;10.52;;;5.55;;
33094;SDS011;19459;53.044;8.910;2023-07-08T00:59:23;7.97;;;6.03;;
33094;SDS011;19459;53.044;8.910;2023-07-08T01:02:12;9.48;;;5.60;;
33094;SDS011;19459;53.044;8.910;2023-07-08T01:04:52;11.68;;;5.00;;
33094;SDS011;19459;53.044;8.910;2023-07-08T01:07:30;10.20;;;4.65;;
33094;SDS011;19459;53.044;8.910;2023-07-08T01:10:01;7.47;;;5.45;;
33094;SDS011;19459;53.044;8.910;2023-07-08T01:13:11;8.88;;;5.30;;
33094;SDS011;19459;53.044;8.910;2023-07-08T01:15:42;7.63;;;4.93;;
33094;SDS011;19459;53.044;8.910;2023-07-08T01:18:11;7.47;;;4.82;;
33094;SDS011;19459;53.044;8.910;2023-07-08T01:20:41;13.93;;;5.10;;
33094;SDS011;19459;53.044;8.910;2023-07-08T01:23:09;13.65;;;5.97;;
33094;SDS011;19459;53.044;8.910;2023-07-08T01:25:36;7.05;;;5.57;;
33094;SDS011;19459;53.044;8.910;2023-07-08T01:28:02;6.80;;;5.40;;
33094;SDS011;19459;53.044;8.910;2023-07-08T01:30:28;10.60;;;5.30;;
33094;SDS011;19459;53.044;8.910;2023-07-08T01:32:56;7.03;;;5.45;;
33094;SDS011;19459;53.044;8.910;2023-07-08T01:35:32;8.00;;;5.05;;
33094;SDS011;19459;53.044;8.910;2023-07-08T01:38:00;10.52;;;6.03;;
33094;SDS011;19459;53.044;8.910;2023-07-08T01:40:32;8.23;;;5.70;;
33094;SDS011;19459;53.044;8.910;2023-07-08T01:43:01;9.57;;;5.05;;
33094;SDS011;19459;53.044;8.910;2023-07-08T01:45:31;9.15;;;5.80;;
33094;SDS011;19459;53.044;8.910;2023-07-08T01:48:04;7.47;;;5.28;;
33094;SDS011;19459;53.044;8.910;2023-07-08T01:50:37;7.05;;;4.82;;
33094;SDS011;19459;53.044;8.910;2023-07-08T01:53:34;6.68;;;5.22;;
33094;SDS011;19459;53.044;8.910;2023-07-08T01:56:06;8.52;;;5.38;;
33094;SDS011;19459;53.044;8.910;2023-07-08T01:58:34;14.85;;;5.45;;
33094;SDS011;19459;53.044;8.910;2023-07-08T02:01:01;8.65;;;5.15;;
33094;SDS011;19459;53.044;8.910;2023-07-08T02:03:28;9.40;;;5.20;;
33094;SDS011;19459;53.044;8.910;2023-07-08T02:05:53;10.07;;;5.28;;
33094;SDS011;19459;53.044;8.910;2023-07-08T02:08:20;11.48;;;6.18;;
33094;SDS011;19459;53.044;8.910;2023-07-08T02:10:50;8.65;;;4.80;;
33094;SDS011;19459;53.044;8.910;2023-07-08T02:13:22;7.28;;;5.10;;
33094;SDS011;19459;53.044;8.910;2023-07-08T02:15:49;8.63;;;5.88;;
33094;SDS011;19459;53.044;8.910;2023-07-08T02:18:16;8.18;;;5.82;;
33094;SDS011;19459;53.044;8.910;2023-07-08T02:20:44;8.55;;;5.15;;
33094;SDS011;19459;53.044;8.910;2023-07-08T02:23:10;10.23;;;5.40;;
33094;SDS011;19459;53.044;8.910;2023-07-08T02:25:36;7.68;;;5.45;;
33094;SDS011;19459;53.044;8.910;2023-07-08T02:28:02;8.43;;;4.72;;
33094;SDS011;19459;53.044;8.910;2023-07-08T02:30:28;5.63;;;4.57;;
33094;SDS011;19459;53.044;8.910;2023-07-08T02:32:54;5.97;;;4.90;;
33094;SDS011;19459;53.044;8.910;2023-07-08T02:35:26;9.63;;;5.32;;
33094;SDS011;19459;53.044;8.910;2023-07-08T02:37:55;10.77;;;6.05;;
33094;SDS011;19459;53.044;8.910;2023-07-08T02:40:22;12.07;;;5.85;;
33094;SDS011;19459;53.044;8.910;2023-07-08T02:42:49;10.18;;;5.53;;
33094;SDS011;19459;53.044;8.910;2023-07-08T02:45:15;9.60;;;5.32;;
33094;SDS011;19459;53.044;8.910;2023-07-08T02:47:42;8.90;;;5.57;;
33094;SDS011;19459;53.044;8.910;2023-07-08T02:50:08;9.25;;;6.13;;
33094;SDS011;19459;53.044;8.910;2023-07-08T02:52:35;7.00;;;4.97;;
33094;SDS011;19459;53.044;8.910;2023-07-08T02:55:01;6.95;;;5.35;;
33094;SDS011;19459;53.044;8.910;2023-07-08T02:57:28;9.18;;;5.40;;
33094;SDS011;19459;53.044;8.910;2023-07-08T02:59:54;7.70;;;5.13;;
33094;SDS011;19459;53.044;8.910;2023-07-08T03:02:21;9.85;;;5.85;;
33094;SDS011;19459;53.044;8.910;2023-07-08T03:04:47;7.18;;;5.35;;
33094;SDS011;19459;53.044;8.910;2023-07-08T03:07:15;10.50;;;5.38;;
33094;SDS011;19459;53.044;8.910;2023-07-08T03:09:42;9.40;;;5.43;;
33094;SDS011;19459;53.044;8.910;2023-07-08T03:12:09;11.70;;;6.00;;
33094;SDS011;19459;53.044;8.910;2023-07-08T03:14:36;8.38;;;5.93;;
33094;SDS011;19459;53.044;8.910;2023-07-08T03:17:03;10.43;;;6.05;;
33094;SDS011;19459;53.044;8.910;2023-07-08T03:19:29;20.02;;;6.50;;
33094;SDS011;19459;53.044;8.910;2023-07-08T03:21:55;10.15;;;5.80;;
33094;SDS011;19459;53.044;8.910;2023-07-08T03:24:21;10.80;;;6.18;;
33094;SDS011;19459;53.044;8.910;2023-07-08T03:26:47;8.80;;;6.07;;
33094;SDS011;19459;53.044;8.910;2023-07-08T03:29:14;7.47;;;6.03;;
33094;SDS011;19459;53.044;8.910;2023-07-08T03:31:43;9.98;;;6.38;;
33094;SDS011;19459;53.044;8.910;2023-07-08T03:34:10;12.52;;;6.45;;
33094;SDS011;19459;53.044;8.910;2023-07-08T03:36:45;7.75;;;6.47;;
33094;SDS011;19459;53.044;8.910;2023-07-08T03:39:16;8.77;;;6.22;;
33094;SDS011;19459;53.044;8.910;2023-07-08T03:41:43;12.57;;;6.68;;
33094;SDS011;19459;53.044;8.910;2023-07-08T03:44:10;9.70;;;6.57;;
33094;SDS011;19459;53.044;8.910;2023-07-08T03:46:36;9.60;;;6.43;;
33094;SDS011;19459;53.044;8.910;2023-07-08T03:49:03;10.05;;;6.28;;
33094;SDS011;19459;53.044;8.910;2023-07-08T03:51:30;8.90;;;6.63;;
33094;SDS011;19459;53.044;8.910;2023-07-08T03:54:01;11.10;;;6.07;;
33094;SDS011;19459;53.044;8.910;2023-07-08T03:56:28;10.63;;;6.43;;
33094;SDS011;19459;53.044;8.910;2023-07-08T03:58:54;10.52;;;6.28;;
33094;SDS011;19459;53.044;8.910;2023-07-08T04:01:21;10.52;;;6.68;;
33094;SDS011;19459;53.044;8.910;2023-07-08T04:03:52;10.52;;;6.22;;
33094;SDS011;19459;53.044;8.910;2023-07-08T04:06:20;8.63;;;5.95;;
33094;SDS011;19459;53.044;8.910;2023-07-08T04:08:46;10.70;;;6.47;;
33094;SDS011;19459;53.044;8.910;2023-07-08T04:11:13;13.93;;;6.53;;
33094;SDS011;19459;53.044;8.910;2023-07-08T04:13:43;8.95;;;6.00;;
33094;SDS011;19459;53.044;8.910;2023-07-08T04:16:14;11.27;;;6.00;;
33094;SDS011;19459;53.044;8.910;2023-07-08T04:18:47;7.82;;;6.13;;
33094;SDS011;19459;53.044;8.910;2023-07-08T04:21:15;10.57;;;6.85;;
33094;SDS011;19459;53.044;8.910;2023-07-08T04:23:42;10.10;;;6.22;;
33094;SDS011;19459;53.044;8.910;2023-07-08T04:26:08;11.32;;;6.47;;
33094;SDS011;19459;53.044;8.910;2023-07-08T04:28:35;11.55;;;6.57;;
33094;SDS011;19459;53.044;8.910;2023-07-08T04:31:01;8.05;;;6.03;;
33094;SDS011;19459;53.044;8.910;2023-07-08T04:33:28;10.18;;;6.13;;
33094;SDS011;19459;53.044;8.910;2023-07-08T04:35:55;9.23;;;6.55;;
33094;SDS011;19459;53.044;8.910;2023-07-08T04:38:25;11.50;;;6.65;;
33094;SDS011;19459;53.044;8.910;2023-07-08T04:40:52;12.10;;;6.85;;
33094;SDS011;19459;53.044;8.910;2023-07-08T04:43:19;14.35;;;7.18;;
33094;SDS011;19459;53.044;8.910;2023-07-08T04:45:50;10.13;;;6.10;;
33094;SDS011;19459;53.044;8.910;2023-07-08T04:48:18;8.88;;;6.10;;
33094;SDS011;19459;53.044;8.910;2023-07-08T04:50:48;7.72;;;5.38;;
33094;SDS011;19459;53.044;8.910;2023-07-08T04:53:15;8.35;;;6.28;;
33094;SDS011;19459;53.044;8.910;2023-07-08T04:55:43;8.20;;;6.10;;
33094;SDS011;19459;53.044;8.910;2023-07-08T04:58:13;7.00;;;5.60;;
33094;SDS011;19459;53.044;8.910;2023-07-08T05:00:39;10.32;;;6.65;;
33094;SDS011;19459;53.044;8.910;2023-07-08T05:03:04;8.45;;;5.47;;
33094;SDS011;19459;53.044;8.910;2023-07-08T05:05:30;7.93;;;5.75;;
33094;SDS011;19459;53.044;8.910;2023-07-08T05:07:56;9.25;;;5.95;;
33094;SDS011;19459;53.044;8.910;2023-07-08T05:10:22;8.27;;;6.10;;
33094;SDS011;19459;53.044;8.910;2023-07-08T05:12:48;6.13;;;5.32;;
33094;SDS011;19459;53.044;8.910;2023-07-08T05:15:14;8.55;;;5.35;;
33094;SDS011;19459;53.044;8.910;2023-07-08T05:17:40;8.98;;;5.43;;
33094;SDS011;19459;53.044;8.910;2023-07-08T05:20:08;8.23;;;5.03;;
33094;SDS011;19459;53.044;8.910;2023-07-08T05:22:36;7.88;;;4.70;;
33094;SDS011;19459;53.044;8.910;2023-07-08T05:25:02;11.98;;;5.22;;
33094;SDS011;19459;53.044;8.910;2023-07-08T05:27:30;7.55;;;5.40;;
33094;SDS011;19459;53.044;8.910;2023-07-08T05:29:58;8.50;;;5.35;;
33094;SDS011;19459;53.044;8.910;2023-07-08T05:32:25;9.85;;;5.03;;
33094;SDS011;19459;53.044;8.910;2023-07-08T05:34:52;7.68;;;5.15;;
33094;SDS011;19459;53.044;8.910;2023-07-08T05:37:18;10.50;;;4.80;;
33094;SDS011;19459;53.044;8.910;2023-07-08T05:39:48;6.50;;;4.40;;
33094;SDS011;19459;53.044;8.910;2023-07-08T05:42:14;8.40;;;4.95;;
33094;SDS011;19459;53.044;8.910;2023-07-08T05:44:40;5.63;;;5.00;;
33094;SDS011;19459;53.044;8.910;2023-07-08T05:47:06;8.57;;;5.55;;
33094;SDS011;19459;53.044;8.910;2023-07-08T05:49:32;6.65;;;4.95;;
33094;SDS011;19459;53.044;8.910;2023-07-08T05:51:58;8.45;;;4.70;;
33094;SDS011;19459;53.044;8.910;2023-07-08T05:54:24;11.80;;;5.13;;
33094;SDS011;19459;53.044;8.910;2023-07-08T05:56:50;6.25;;;4.72;;
33094;SDS011;19459;53.044;8.910;2023-07-08T05:59:15;5.47;;;4.07;;
33094;SDS011;19459;53.044;8.910;2023-07-08T06:01:41;10.15;;;4.28;;
33094;SDS011;19459;53.044;8.910;2023-07-08T06:04:07;5.20;;;4.30;;
33094;SDS011;19459;53.044;8.910;2023-07-08T06:06:32;7.13;;;4.97;;
33094;SDS011;19459;53.044;8.910;2023-07-08T06:08:58;7.10;;;4.65;;
33094;SDS011;19459;53.044;8.910;2023-07-08T06:11:25;5.45;;;4.65;;
33094;SDS011;19459;53.044;8.910;2023-07-08T06:13:50;8.57;;;4.90;;
33094;SDS011;19459;53.044;8.910;2023-07-08T06:16:16;6.22;;;4.57;;
33094;SDS011;19459;53.044;8.910;2023-07-08T06:18:42;8.30;;;5.03;;
33094;SDS011;19459;53.044;8.910;2023-07-08T06:21:08;6.22;;;4.72;;
33094;SDS011;19459;53.044;8.910;2023-07-08T06:23:33;7.93;;;4.28;;
33094;SDS011;19459;53.044;8.910;2023-07-08T06:25:59;4.78;;;4.28;;
33094;SDS011;19459;53.044;8.910;2023-07-08T06:28:25;8.60;;;4.93;;
33094;SDS011;19459;53.044;8.910;2023-07-08T06:30:51;6.35;;;4.45;;
33094;SDS011;19459;53.044;8.910;2023-07-08T06:33:17;10.77;;;4.50;;
33094;SDS011;19459;53.044;8.910;2023-07-08T06:35:43;10.20;;;5.07;;
33094;SDS011;19459;53.044;8.910;2023-07-08T06:38:09;6.53;;;4.60;;
33094;SDS011;19459;53.044;8.910;2023-07-08T06:40:35;6.00;;;4.53;;
33094;SDS011;19459;53.044;8.910;2023-07-08T06:43:02;10.82;;;4.43;;
33094;SDS011;19459;53.044;8.910;2023-07-08T06:45:28;9.55;;;4.75;;
33094;SDS011;19459;53.044;8.910;2023-07-08T06:47:54;8.02;;;4.18;;
33094;SDS011;19459;53.044;8.910;2023-07-08T06:50:20;8.50;;;4.78;;
33094;SDS011;19459;53.044;8.910;2023-07-08T06:52:46;8.60;;;4.45;;
33094;SDS011;19459;53.044;8.910;2023-07-08T06:55:12;5.32;;;3.70;;
33094;SDS011;19459;53.044;8.910;2023-07-08T06:57:38;5.82;;;4.00;;
33094;SDS011;19459;53.044;8.910;2023-07-08T07:00:05;8.32;;;5.03;;
33094;SDS011;19459;53.044;8.910;2023-07-08T07:02:33;11.85;;;4.65;;
33094;SDS011;19459;53.044;8.910;2023-07-08T07:05:01;6.07;;;4.53;;
33094;SDS011;19459;53.044;8.910;2023-07-08T07:07:29;11.68;;;3.75;;
33094;SDS011;19459;53.044;8.910;2023-07-08T07:09:55;6.47;;;4.25;;
33094;SDS011;19459;53.044;8.910;2023-07-08T07:12:22;7.22;;;4.32;;
33094;SDS011;19459;53.044;8.910;2023-07-08T07:14:49;8.25;;;4.38;;
33094;SDS011;19459;53.044;8.910;2023-07-08T07:17:17;6.57;;;4.00;;
33094;SDS011;19459;53.044;8.910;2023-07-08T07:19:48;6.53;;;4.20;;
33094;SDS011;19459;53.044;8.910;2023-07-08T07:22:14;7.28;;;4.20;;
33094;SDS011;19459;53.044;8.910;2023-07-08T07:24:40;4.72;;;3.67;;
33094;SDS011;19459;53.044;8.910;2023-07-08T07:27:07;17.08;;;5.35;;
33094;SDS011;19459;53.044;8.910;2023-07-08T07:29:41;6.75;;;4.57;;
33094;SDS011;19459;53.044;8.910;2023-07-08T07:32:10;5.93;;;4.43;;
33094;SDS011;19459;53.044;8.910;2023-07-08T07:34:37;11.00;;;4.13;;
33094;SDS011;19459;53.044;8.910;2023-07-08T07:37:03;6.35;;;3.67;;
33094;SDS011;19459;53.044;8.910;2023-07-08T07:39:31;7.45;;;4.20;;
33094;SDS011;19459;53.044;8.910;2023-07-08T07:41:57;4.93;;;3.63;;
33094;SDS011;19459;53.044;8.910;2023-07-08T07:44:22;7.60;;;3.97;;
33094;SDS011;19459;53.044;8.910;2023-07-08T07:46:52;5.55;;;3.53;;
33094;SDS011;19459;53.044;8.910;2023-07-08T07:49:19;6.05;;;3.75;;
33094;SDS011;19459;53.044;8.910;2023-07-08T07:51:45;7.47;;;4.03;;
33094;SDS011;19459;53.044;8.910;2023-07-08T07:54:11;4.85;;;3.63;;
33094;SDS011;19459;53.044;8.910;2023-07-08T07:56:37;8.85;;;3.28;;
33094;SDS011;19459;53.044;8.910;2023-07-08T07:59:03;7.15;;;4.35;;
33094;SDS011;19459;53.044;8.910;2023-07-08T08:01:29;5.97;;;3.55;;
33094;SDS011;19459;53.044;8.910;2023-07-08T08:03:54;4.13;;;3.72;;
33094;SDS011;19459;53.044;8.910;2023-07-08T08:06:20;4.78;;;4.18;;
33094;SDS011;19459;53.044;8.910;2023-07-08T08:08:46;7.80;;;4.07;;
33094;SDS011;19459;53.044;8.910;2023-07-08T08:11:14;8.50;;;3.80;;
33094;SDS011;19459;53.044;8.910;2023-07-08T08:13:40;8.48;;;4.07;;
33094;SDS011;19459;53.044;8.910;2023-07-08T08:16:06;10.93;;;3.83;;
33094;SDS011;19459;53.044;8.910;2023-07-08T08:18:32;9.18;;;4.38;;
33094;SDS011;19459;53.044;8.910;2023-07-08T08:20:58;6.57;;;4.13;;
33094;SDS011;19459;53.044;8.910;2023-07-08T08:23:24;4.93;;;3.85;;
33094;SDS011;19459;53.044;8.910;2023-07-08T08:25:50;6.35;;;3.85;;
33094;SDS011;19459;53.044;8.910;2023-07-08T08:28:16;4.47;;;3.50;;
33094;SDS011;19459;53.044;8.910;2023-07-08T08:30:46;9.40;;;3.30;;
33094;SDS011;19459;53.044;8.910;2023-07-08T08:33:15;10.00;;;3.92;;
33094;SDS011;19459;53.044;8.910;2023-07-08T08:35:42;6.18;;;3.60;;
33094;SDS011;19459;53.044;8.910;2023-07-08T08:38:08;8.32;;;3.97;;
33094;SDS011;19459;53.044;8.910;2023-07-08T08:40:34;3.80;;;3.28;;
33094;SDS011;19459;53.044;8.910;2023-07-08T08:43:05;4.35;;;3.60;;
33094;SDS011;19459;53.044;8.910;2023-07-08T08:45:53;5.03;;;3.70;;
33094;SDS011;19459;53.044;8.910;2023-07-08T08:48:24;4.60;;;3.25;;
33094;SDS011;19459;53.044;8.910;2023-07-08T08:50:55;4.50;;;3.85;;
33094;SDS011;19459;53.044;8.910;2023-07-08T08:53:25;5.18;;;3.22;;
33094;SDS011;19459;53.044;8.910;2023-07-08T08:56:34;4.25;;;3.20;;
33094;SDS011;19459;53.044;8.910;2023-07-08T08:58:58;7.82;;;4.18;;
33094;SDS011;19459;53.044;8.910;2023-07-08T09:01:39;5.30;;;3.78;;
33094;SDS011;19459;53.044;8.910;2023-07-08T09:04:06;5.70;;;3.50;;
33094;SDS011;19459;53.044;8.910;2023-07-08T09:06:37;11.68;;;3.97;;
33094;SDS011;19459;53.044;8.910;2023-07-08T09:12:24;5.03;;;3.30;;
33094;SDS011;19459;53.044;8.910;2023-07-08T09:14:52;5.13;;;4.07;;
33094;SDS011;19459;53.044;8.910;2023-07-08T09:19:58;5.63;;;3.70;;
33094;SDS011;19459;53.044;8.910;2023-07-08T09:27:50;5.43;;;2.97;;
33094;SDS011;19459;53.044;8.910;2023-07-08T09:30:17;6.50;;;3.28;;
33094;SDS011;19459;53.044;8.910;2023-07-08T09:32:46;4.18;;;3.35;;
33094;SDS011;19459;53.044;8.910;2023-07-08T09:35:22;9.63;;;3.83;;
33094;SDS011;19459;53.044;8.910;2023-07-08T09:37:50;5.95;;;3.20;;
33094;SDS011;19459;53.044;8.910;2023-07-08T09:40:18;4.90;;;3.33;;
33094;SDS011;19459;53.044;8.910;2023-07-08T09:42:55;4.20;;;3.00;;
33094;SDS011;19459;53.044;8.910;2023-07-08T09:45:29;4.80;;;3.72;;
33094;SDS011;19459;53.044;8.910;2023-07-08T09:48:14;7.28;;;3.45;;
33094;SDS011;19459;53.044;8.910;2023-07-08T09:50:43;6.40;;;3.50;;
33094;SDS011;19459;53.044;8.910;2023-07-08T09:53:13;3.33;;;2.90;;
33094;SDS011;19459;53.044;8.910;2023-07-08T09:55:40;3.83;;;3.17;;
33094;SDS011;19459;53.044;8.910;2023-07-08T09:58:08;5.13;;;3.42;;
33094;SDS011;19459;53.044;8.910;2023-07-08T10:00:39;9.65;;;3.40;;
33094;SDS011;19459;53.044;8.910;2023-07-08T10:03:26;5.47;;;3.20;;
33094;SDS011;19459;53.044;8.910;2023-07-08T10:05:57;4.35;;;3.40;;
33094;SDS011;19459;53.044;8.910;2023-07-08T10:08:28;4.28;;;3.78;;
33094;SDS011;19459;53.044;8.910;2023-07-08T10:11:10;7.90;;;3.60;;
33094;SDS011;19459;53.044;8.910;2023-07-08T10:13:53;6.15;;;3.05;;
33094;SDS011;19459;53.044;8.910;2023-07-08T10:18:55;4.60;;;3.75;;
33094;SDS011;19459;53.044;8.910;2023-07-08T10:21:30;7.13;;;3.25;;
33094;SDS011;19459;53.044;8.910;2023-07-08T10:27:07;4.85;;;3.10;;
33094;SDS011;19459;53.044;8.910;2023-07-08T10:36:21;4.55;;;3.33;;
33094;SDS011;19459;53.044;8.910;2023-07-08T10:56:34;4.82;;;3.13;;
33094;SDS011;19459;53.044;8.910;2023-07-08T10:59:33;6.15;;;3.55;;
33094;SDS011;19459;53.044;8.910;2023-07-08T11:02:23;6.80;;;3.72;;
33094;SDS011;19459;53.044;8.910;2023-07-08T11:07:50;3.83;;;3.20;;
33094;SDS011;19459;53.044;8.910;2023-07-08T11:10:34;5.43;;;3.53;;
33094;SDS011;19459;53.044;8.910;2023-07-08T11:13:12;5.97;;;3.85;;
33094;SDS011;19459;53.044;8.910;2023-07-08T11:15:46;6.20;;;3.75;;
33094;SDS011;19459;53.044;8.910;2023-07-08T11:23:54;4.30;;;3.70;;
33094;SDS011;19459;53.044;8.910;2023-07-08T11:26:33;7.68;;;3.58;;
33094;SDS011;19459;53.044;8.910;2023-07-08T11:29:15;4.38;;;3.35;;
33094;SDS011;19459;53.044;8.910;2023-07-08T11:32:00;6.45;;;3.65;;
33094;SDS011;19459;53.044;8.910;2023-07-08T11:34:29;5.07;;;3.28;;
33094;SDS011;19459;53.044;8.910;2023-07-08T11:36:58;6.97;;;3.60;;
33094;SDS011;19459;53.044;8.910;2023-07-08T11:39:38;7.00;;;3.45;;
33094;SDS011;19459;53.044;8.910;2023-07-08T11:42:16;7.40;;;3.72;;
33094;SDS011;19459;53.044;8.910;2023-07-08T11:44:47;5.43;;;4.07;;
33094;SDS011;19459;53.044;8.910;2023-07-08T11:47:24;5.75;;;3.30;;
33094;SDS011;19459;53.044;8.910;2023-07-08T11:50:23;5.57;;;3.97;;
33094;SDS011;19459;53.044;8.910;2023-07-08T11:52:59;4.50;;;3.60;;
33094;SDS011;19459;53.044;8.910;2023-07-08T11:55:38;4.50;;;3.65;;
33094;SDS011;19459;53.044;8.910;2023-07-08T12:03:38;5.97;;;4.28;;
33094;SDS011;19459;53.044;8.910;2023-07-08T12:08:55;5.68;;;3.67;;
33094;SDS011;19459;53.044;8.910;2023-07-08T12:11:27;10.68;;;4.45;;
33094;SDS011;19459;53.044;8.910;2023-07-08T12:13:59;8.18;;;5.30;;
33094;SDS011;19459;53.044;8.910;2023-07-08T12:16:29;4.43;;;3.92;;
33094;SDS011;19459;53.044;8.910;2023-07-08T12:18:57;5.35;;;3.75;;
33094;SDS011;19459;53.044;8.910;2023-07-08T12:21:26;7.97;;;3.60;;
33094;SDS011;19459;53.044;8.910;2023-07-08T12:23:53;8.20;;;4.18;;
33094;SDS011;19459;53.044;8.910;2023-07-08T12:26:19;8.50;;;4.22;;
33094;SDS011;19459;53.044;8.910;2023-07-08T12:28:46;8.15;;;3.92;;
33094;SDS011;19459;53.044;8.910;2023-07-08T12:31:19;7.05;;;4.35;;
33094;SDS011;19459;53.044;8.910;2023-07-08T12:33:48;5.80;;;4.20;;
33094;SDS011;19459;53.044;8.910;2023-07-08T12:36:18;6.93;;;4.03;;
33094;SDS011;19459;53.044;8.910;2023-07-08T12:38:50;5.75;;;3.83;;
33094;SDS011;19459;53.044;8.910;2023-07-08T12:43:48;4.85;;;4.18;;
33094;SDS011;19459;53.044;8.910;2023-07-08T12:46:16;9.00;;;4.63;;
33094;SDS011;19459;53.044;8.910;2023-07-08T12:48:44;5.15;;;4.30;;
33094;SDS011;19459;53.044;8.910;2023-07-08T12:51:11;10.63;;;4.65;;
33094;SDS011;19459;53.044;8.910;2023-07-08T12:53:43;7.80;;;4.33;;
33094;SDS011;19459;53.044;8.910;2023-07-08T12:56:09;8.13;;;4.32;;
33094;SDS011;19459;53.044;8.910;2023-07-08T12:58:44;6.20;;;4.18;;
33094;SDS011;19459;53.044;8.910;2023-07-08T13:01:21;8.02;;;4.13;;
33094;SDS011;19459;53.044;8.910;2023-07-08T13:03:58;4.80;;;3.90;;
33094;SDS011;19459;53.044;8.910;2023-07-08T13:06:29;8.80;;;4.15;;
33094;SDS011;19459;53.044;8.910;2023-07-08T13:09:06;4.50;;;3.60;;
33094;SDS011;19459;53.044;8.910;2023-07-08T13:11:57;4.57;;;3.92;;
33094;SDS011;19459;53.044;8.910;2023-07-08T13:14:31;6.45;;;3.80;;
33094;SDS011;19459;53.044;8.910;2023-07-08T13:16:57;4.47;;;4.00;;
33094;SDS011;19459;53.044;8.910;2023-07-08T13:19:23;7.03;;;4.32;;
33094;SDS011;19459;53.044;8.910;2023-07-08T13:21:49;6.85;;;4.40;;
33094;SDS011;19459;53.044;8.910;2023-07-08T13:24:16;7.65;;;4.18;;
33094;SDS011;19459;53.044;8.910;2023-07-08T13:26:44;5.35;;;4.38;;
33094;SDS011;19459;53.044;8.910;2023-07-08T13:29:15;7.72;;;4.38;;
33094;SDS011;19459;53.044;8.910;2023-07-08T13:31:47;7.25;;;4.70;;
33094;SDS011;19459;53.044;8.910;2023-07-08T13:34:18;4.90;;;4.28;;
33094;SDS011;19459;53.044;8.910;2023-07-08T13:36:46;6.78;;;4.88;;
33094;SDS011;19459;53.044;8.910;2023-07-08T13:39:19;8.95;;;5.75;;
33094;SDS011;19459;53.044;8.910;2023-07-08T13:41:55;7.03;;;4.53;;
33094;SDS011;19459;53.044;8.910;2023-07-08T13:44:21;6.55;;;4.57;;
33094;SDS011;19459;53.044;8.910;2023-07-08T13:52:03;5.40;;;4.60;;
33094;SDS011;19459;53.044;8.910;2023-07-08T13:54:41;4.60;;;3.97;;
33094;SDS011;19459;53.044;8.910;2023-07-08T13:57:15;5.00;;;4.53;;
33094;SDS011;19459;53.044;8.910;2023-07-08T13:59:45;9.32;;;4.60;;
33094;SDS011;19459;53.044;8.910;2023-07-08T14:02:21;5.50;;;4.50;;
33094;SDS011;19459;53.044;8.910;2023-07-08T14:04:51;5.97;;;4.35;;
33094;SDS011;19459;53.044;8.910;2023-07-08T14:07:19;6.18;;;4.72;;
33094;SDS011;19459;53.044;8.910;2023-07-08T14:09:52;8.45;;;4.63;;
33094;SDS011;19459;53.044;8.910;2023-07-08T14:12:19;4.68;;;4.18;;
33094;SDS011;19459;53.044;8.910;2023-07-08T14:14:45;7.80;;;4.90;;
33094;SDS011;19459;53.044;8.910;2023-07-08T14:17:12;5.65;;;4.80;;
33094;SDS011;19459;53.044;8.910;2023-07-08T14:19:48;5.45;;;4.40;;
33094;SDS011;19459;53.044;8.910;2023-07-08T14:24:48;5.28;;;4.70;;
33094;SDS011;19459;53.044;8.910;2023-07-08T14:27:14;7.15;;;5.88;;
33094;SDS011;19459;53.044;8.910;2023-07-08T14:29:41;10.80;;;5.78;;
33094;SDS011;19459;53.044;8.910;2023-07-08T14:32:10;8.13;;;5.28;;
33094;SDS011;19459;53.044;8.910;2023-07-08T14:34:40;7.72;;;5.05;;
33094;SDS011;19459;53.044;8.910;2023-07-08T14:37:11;8.18;;;5.30;;
33094;SDS011;19459;53.044;8.910;2023-07-08T14:39:39;11.13;;;6.60;;
33094;SDS011;19459;53.044;8.910;2023-07-08T14:42:08;8.05;;;6.45;;
33094;SDS011;19459;53.044;8.910;2023-07-08T14:44:37;10.27;;;5.45;;
33094;SDS011;19459;53.044;8.910;2023-07-08T14:47:08;9.18;;;6.57;;
33094;SDS011;19459;53.044;8.910;2023-07-08T14:49:39;11.55;;;6.53;;
33094;SDS011;19459;53.044;8.910;2023-07-08T14:52:05;6.82;;;6.05;;
33094;SDS011;19459;53.044;8.910;2023-07-08T14:54:35;6.57;;;5.78;;
33094;SDS011;19459;53.044;8.910;2023-07-08T14:57:01;7.20;;;6.05;;
33094;SDS011;19459;53.044;8.910;2023-07-08T14:59:30;8.30;;;6.22;;
33094;SDS011;19459;53.044;8.910;2023-07-08T15:01:58;8.68;;;6.63;;
33094;SDS011;19459;53.044;8.910;2023-07-08T15:04:24;13.80;;;6.60;;
33094;SDS011;19459;53.044;8.910;2023-07-08T15:06:50;7.70;;;6.22;;
33094;SDS011;19459;53.044;8.910;2023-07-08T15:09:18;10.20;;;6.13;;
33094;SDS011;19459;53.044;8.910;2023-07-08T15:11:43;8.00;;;6.97;;
33094;SDS011;19459;53.044;8.910;2023-07-08T15:14:18;11.95;;;6.47;;
33094;SDS011;19459;53.044;8.910;2023-07-08T15:16:50;8.00;;;6.00;;
33094;SDS011;19459;53.044;8.910;2023-07-08T15:19:17;6.53;;;5.38;;
33094;SDS011;19459;53.044;8.910;2023-07-08T15:21:45;6.90;;;5.68;;
33094;SDS011;19459;53.044;8.910;2023-07-08T15:24:12;9.93;;;6.47;;
33094;SDS011;19459;53.044;8.910;2023-07-08T15:26:42;8.05;;;6.03;;
33094;SDS011;19459;53.044;8.910;2023-07-08T15:29:32;6.97;;;5.90;;
33094;SDS011;19459;53.044;8.910;2023-07-08T15:31:58;12.07;;;5.95;;
33094;SDS011;19459;53.044;8.910;2023-07-08T15:34:23;15.80;;;7.30;;
33094;SDS011;19459;53.044;8.910;2023-07-08T15:36:49;16.88;;;6.82;;
33094;SDS011;19459;53.044;8.910;2023-07-08T15:39:15;7.32;;;5.45;;
33094;SDS011;19459;53.044;8.910;2023-07-08T15:41:41;14.68;;;6.22;;
33094;SDS011;19459;53.044;8.910;2023-07-08T15:44:11;6.95;;;4.82;;
33094;SDS011;19459;53.044;8.910;2023-07-08T15:46:47;7.13;;;5.28;;
33094;SDS011;19459;53.044;8.910;2023-07-08T15:49:17;9.80;;;5.15;;
33094;SDS011;19459;53.044;8.910;2023-07-08T15:51:49;6.85;;;5.47;;
33094;SDS011;19459;53.044;8.910;2023-07-08T15:54:16;5.38;;;4.85;;
33094;SDS011;19459;53.044;8.910;2023-07-08T15:56:43;9.23;;;5.43;;
33094;SDS011;19459;53.044;8.910;2023-07-08T15:59:16;7.38;;;4.85;;
33094;SDS011;19459;53.044;8.910;2023-07-08T16:01:46;8.05;;;4.93;;
33094;SDS011;19459;53.044;8.910;2023-07-08T16:04:34;12.15;;;5.47;;
33094;SDS011;19459;53.044;8.910;2023-07-08T16:07:00;9.05;;;5.97;;
33094;SDS011;19459;53.044;8.910;2023-07-08T16:09:26;7.53;;;5.03;;
33094;SDS011;19459;53.044;8.910;2023-07-08T16:11:51;6.18;;;5.57;;
33094;SDS011;19459;53.044;8.910;2023-07-08T16:14:18;7.28;;;5.05;;
33094;SDS011;19459;53.044;8.910;2023-07-08T16:16:44;10.70;;;4.80;;